Lexington, Texas
Current Conditions -  °F | °C
As of 10:15 PM on Tuesday 25 Nov 2014 (Local Time) from KGYB Reporting Station
Clear Clear  
Wind Chill: 41°   Ceiling: Unl
Heat Index: 41°   Visibility: 10mi
Dew Point: 37°   Wind: 3mph
Humidity: 85%   Direction: 170°S
Pressure: 30.25"   Gusts: NA
Location:  30.42°N, 97.01°W
Report Text: KGYB 260415Z AUTO 17003KT 10SM CLR 05/03 A3025 RMK AO2 T00500026
Loading
Personal Weather Stations






























Interactive Weather Map New forecast layout! Learn more

10-Day Weather Forecast

Advertisements
Track Severe Weather on mobile